createdAt,value
2023-01-31T00:01:15.652Z,2.62
2023-01-31T00:05:19.905Z,2.63
2023-01-31T00:09:22.188Z,2.72
2023-01-31T00:13:24.170Z,2.76
2023-01-31T00:17:26.192Z,2.79
2023-01-31T00:21:29.770Z,2.84
2023-01-31T00:25:31.797Z,2.86
2023-01-31T00:29:34.681Z,2.86
2023-01-31T00:33:38.655Z,2.88
2023-01-31T00:42:19.341Z,2.94
2023-01-31T00:46:22.098Z,2.93
2023-01-31T00:50:24.232Z,2.82
2023-01-31T00:54:26.259Z,2.73
2023-01-31T00:58:28.355Z,2.62
2023-01-31T01:02:31.490Z,2.61
2023-01-31T01:06:33.905Z,2.58
2023-01-31T01:10:36.738Z,2.53
2023-01-31T01:14:38.715Z,2.45
2023-01-31T01:18:40.847Z,2.45
2023-01-31T01:22:42.951Z,2.52
2023-01-31T01:26:45.784Z,2.58
2023-01-31T01:30:47.811Z,2.53
2023-01-31T01:34:49.949Z,2.55
2023-01-31T01:38:52.349Z,2.54
2023-01-31T01:42:54.347Z,2.52
2023-01-31T01:46:56.575Z,2.47
2023-01-31T01:50:59.434Z,2.38
2023-01-31T01:55:13.008Z,2.29
2023-01-31T01:59:24.182Z,2.24
2023-01-31T02:03:27.294Z,2.07
2023-01-31T02:07:30.299Z,1.94
2023-01-31T02:11:32.406Z,1.87
2023-01-31T02:15:35.863Z,1.86
2023-01-31T02:20:15.031Z,1.92
2023-01-31T02:24:54.191Z,2.01
2023-01-31T02:29:13.773Z,1.99
2023-01-31T02:33:39.165Z,1.97
2023-01-31T02:38:02.499Z,1.87
2023-01-31T02:42:29.861Z,1.80
2023-01-31T02:46:42.641Z,1.74
2023-01-31T02:50:56.674Z,1.66
2023-01-31T02:55:45.687Z,1.58
2023-01-31T02:59:48.910Z,1.51
2023-01-31T03:03:51.806Z,1.44
2023-01-31T03:07:58.092Z,1.39
2023-01-31T03:12:12.508Z,1.33
2023-01-31T03:16:47.049Z,1.27
2023-01-31T03:20:58.356Z,1.22
2023-01-31T03:25:03.618Z,1.17
2023-01-31T03:29:08.604Z,1.15
2023-01-31T03:33:23.851Z,1.26
2023-01-31T03:37:40.716Z,1.50
2023-01-31T03:42:08.174Z,1.51
2023-01-31T03:46:26.068Z,1.42
2023-01-31T03:50:34.664Z,1.39
2023-01-31T03:54:41.391Z,1.40
2023-01-31T03:58:50.714Z,1.51
2023-01-31T04:03:01.961Z,1.53
2023-01-31T04:07:04.979Z,1.62
2023-01-31T04:11:12.947Z,1.73
2023-01-31T04:15:15.883Z,1.84
2023-01-31T04:19:17.999Z,1.93
2023-01-31T04:23:20.032Z,1.96
2023-01-31T04:27:22.087Z,1.97
2023-01-31T04:31:24.115Z,1.90
2023-01-31T04:35:26.114Z,1.81
2023-01-31T04:39:28.302Z,1.76
2023-01-31T04:43:30.355Z,1.69
2023-01-31T04:47:32.894Z,1.59
2023-01-31T04:51:35.213Z,1.48
2023-01-31T04:55:37.229Z,1.40
2023-01-31T04:59:39.205Z,1.30
2023-01-31T05:03:41.205Z,1.20
2023-01-31T05:07:44.316Z,1.12
2023-01-31T05:11:46.598Z,1.10
2023-01-31T05:15:49.427Z,1.05
2023-01-31T05:19:51.978Z,1.02
2023-01-31T05:23:53.983Z,0.97
2023-01-31T05:27:56.013Z,0.94
2023-01-31T05:32:00.261Z,0.92
2023-01-31T05:36:03.703Z,0.93
2023-01-31T05:40:06.634Z,0.91
2023-01-31T05:44:08.877Z,0.87
2023-01-31T05:48:10.878Z,0.84
2023-01-31T05:52:12.888Z,0.79
2023-01-31T05:56:16.532Z,0.77
2023-01-31T06:00:19.303Z,0.78
2023-01-31T06:04:21.380Z,0.77
2023-01-31T06:08:23.428Z,0.76
2023-01-31T06:12:25.479Z,0.75
2023-01-31T06:16:27.670Z,0.75
2023-01-31T06:20:30.612Z,0.81
2023-01-31T06:24:33.090Z,0.78
2023-01-31T06:28:36.550Z,0.84
2023-01-31T06:32:38.569Z,0.92
2023-01-31T06:36:40.595Z,1.02
2023-01-31T06:40:42.863Z,1.43
2023-01-31T06:44:45.185Z,1.89
2023-01-31T06:48:48.523Z,2.09
2023-01-31T06:52:50.570Z,1.98
2023-01-31T06:56:52.693Z,1.88
2023-01-31T07:00:54.877Z,1.90
2023-01-31T07:04:56.888Z,1.93
2023-01-31T07:08:58.848Z,1.92
2023-01-31T07:13:01.439Z,1.87
2023-01-31T07:17:03.529Z,1.92
2023-01-31T07:21:06.346Z,1.93
2023-01-31T07:25:08.762Z,2.00
2023-01-31T07:29:12.055Z,2.16
2023-01-31T07:33:14.251Z,2.29
2023-01-31T07:37:16.715Z,2.36
2023-01-31T07:41:18.724Z,2.41
2023-01-31T07:45:23.572Z,2.46
2023-01-31T07:49:25.944Z,2.50
2023-01-31T07:53:32.293Z,2.43
2023-01-31T07:57:34.298Z,2.39
2023-01-31T08:01:54.946Z,2.38
2023-01-31T08:05:56.944Z,2.44
2023-01-31T08:09:58.931Z,2.48
2023-01-31T08:14:00.920Z,2.56
2023-01-31T08:18:05.935Z,2.51
2023-01-31T08:22:08.296Z,2.55
2023-01-31T08:26:16.294Z,2.63
2023-01-31T08:30:18.441Z,2.66
2023-01-31T08:34:21.039Z,2.74
2023-01-31T08:38:23.551Z,2.75
2023-01-31T08:42:25.546Z,2.83
2023-01-31T08:46:30.875Z,2.95
2023-01-31T08:50:34.030Z,3.11
2023-01-31T08:54:36.626Z,3.20
2023-01-31T08:58:41.858Z,3.31
2023-01-31T09:02:46.260Z,3.45
2023-01-31T09:06:49.602Z,3.58
2023-01-31T09:10:53.224Z,3.74
2023-01-31T09:14:55.241Z,3.68
2023-01-31T09:18:57.426Z,3.64
2023-01-31T09:22:59.417Z,3.70
2023-01-31T09:27:01.568Z,3.71
2023-01-31T09:31:09.498Z,3.68
2023-01-31T09:35:14.126Z,3.58
2023-01-31T09:39:16.447Z,3.51
2023-01-31T09:43:22.470Z,3.50
2023-01-31T09:47:33.957Z,3.55
2023-01-31T09:51:38.181Z,3.57
2023-01-31T09:55:56.174Z,3.60
2023-01-31T10:00:02.378Z,3.63
2023-01-31T10:04:28.451Z,3.65
2023-01-31T10:08:47.120Z,3.67
2023-01-31T10:12:54.361Z,3.69
2023-01-31T10:17:06.776Z,3.73
2023-01-31T10:21:31.562Z,3.73
2023-01-31T10:25:55.320Z,3.72
2023-01-31T10:30:02.923Z,3.65
2023-01-31T10:34:14.843Z,3.60
2023-01-31T10:38:54.996Z,3.53
2023-01-31T10:43:18.504Z,3.52
2023-01-31T10:47:29.481Z,3.48
2023-01-31T10:51:50.238Z,3.49
2023-01-31T10:56:01.509Z,3.55
2023-01-31T11:00:04.224Z,3.49
2023-01-31T11:04:24.112Z,3.49
2023-01-31T11:08:49.376Z,3.52
2023-01-31T11:12:57.712Z,3.63
2023-01-31T11:17:08.806Z,3.69
2023-01-31T11:21:20.117Z,3.72
2023-01-31T11:25:24.686Z,3.79
2023-01-31T11:29:34.392Z,3.90
2023-01-31T11:33:45.925Z,3.96
2023-01-31T11:37:55.784Z,3.96
2023-01-31T11:42:06.308Z,3.98
2023-01-31T11:46:08.605Z,4.00
2023-01-31T11:50:26.102Z,4.04
2023-01-31T11:54:34.086Z,4.01
2023-01-31T11:58:39.956Z,4.01
2023-01-31T12:02:42.281Z,4.05
2023-01-31T12:07:02.975Z,4.06
2023-01-31T12:11:28.701Z,4.10
2023-01-31T12:15:31.924Z,4.15
2023-01-31T12:20:05.582Z,4.24
2023-01-31T12:24:24.656Z,4.32
2023-01-31T12:28:32.567Z,4.39
2023-01-31T12:33:13.731Z,4.35
2023-01-31T12:37:27.926Z,4.32
2023-01-31T12:41:39.734Z,4.27
2023-01-31T12:46:04.094Z,4.29
2023-01-31T12:50:30.578Z,4.31
2023-01-31T12:54:58.980Z,4.36
2023-01-31T12:59:26.099Z,4.48
2023-01-31T13:03:34.831Z,4.55
2023-01-31T13:07:56.098Z,4.48
2023-01-31T13:12:07.780Z,4.54
2023-01-31T13:16:34.867Z,4.61
2023-01-31T13:20:48.550Z,4.56
2023-01-31T13:25:20.444Z,4.60
2023-01-31T13:29:34.516Z,4.64
2023-01-31T13:33:41.073Z,4.61
2023-01-31T13:37:46.776Z,4.54
2023-01-31T13:41:48.789Z,4.56
2023-01-31T13:45:58.922Z,4.61
2023-01-31T13:50:18.641Z,4.59
2023-01-31T13:54:26.413Z,4.52
2023-01-31T13:58:34.136Z,4.41
2023-01-31T14:02:36.597Z,4.37
2023-01-31T14:06:56.865Z,4.33
2023-01-31T14:11:25.189Z,4.25
2023-01-31T14:15:51.218Z,4.19
2023-01-31T14:19:55.008Z,4.21
2023-01-31T14:24:02.048Z,4.22
2023-01-31T14:28:04.282Z,4.24
2023-01-31T14:32:15.143Z,4.31
2023-01-31T14:36:36.381Z,4.38
2023-01-31T14:40:51.137Z,4.40
2023-01-31T14:45:20.481Z,4.39
2023-01-31T14:49:34.923Z,4.31
2023-01-31T14:53:58.381Z,4.30
2023-01-31T14:58:03.779Z,4.36
2023-01-31T15:02:42.729Z,4.35
2023-01-31T15:06:50.645Z,4.41
2023-01-31T15:11:12.784Z,4.46
2023-01-31T15:15:35.531Z,4.48
2023-01-31T15:19:53.032Z,4.52
2023-01-31T15:23:55.985Z,4.54
2023-01-31T15:28:00.711Z,4.53
2023-01-31T15:32:14.000Z,4.50
2023-01-31T15:36:43.580Z,4.52
2023-01-31T15:40:45.552Z,4.51
2023-01-31T15:44:47.611Z,4.51
2023-01-31T15:48:50.161Z,4.50
2023-01-31T15:52:55.144Z,4.44
2023-01-31T15:56:57.683Z,4.40
2023-01-31T16:01:01.619Z,4.37
2023-01-31T16:05:07.774Z,4.35
2023-01-31T16:09:27.446Z,4.31
2023-01-31T16:13:30.524Z,4.27
2023-01-31T16:17:33.205Z,4.27
2023-01-31T16:21:46.305Z,4.25
2023-01-31T16:26:01.400Z,4.25
2023-01-31T16:30:04.525Z,4.33
2023-01-31T16:34:21.690Z,4.35
2023-01-31T16:38:27.033Z,4.32
2023-01-31T16:42:31.098Z,4.29
2023-01-31T16:46:41.525Z,4.30
2023-01-31T16:50:43.943Z,4.35
2023-01-31T16:54:50.994Z,4.40
2023-01-31T16:58:58.505Z,4.38
2023-01-31T17:03:01.563Z,4.32
2023-01-31T17:07:08.339Z,4.34
2023-01-31T17:11:16.644Z,4.34
2023-01-31T17:15:25.871Z,4.35
2023-01-31T17:19:29.296Z,4.43
2023-01-31T17:23:31.304Z,4.42
2023-01-31T17:27:33.362Z,4.37
2023-01-31T17:31:35.853Z,4.30
2023-01-31T17:35:44.580Z,4.31
2023-01-31T17:39:46.601Z,4.30
2023-01-31T17:43:48.640Z,4.34
2023-01-31T17:47:50.851Z,4.29
2023-01-31T17:51:52.922Z,4.29
2023-01-31T17:55:55.039Z,4.27
2023-01-31T17:59:57.039Z,4.21
2023-01-31T18:04:00.650Z,4.17
2023-01-31T18:08:02.722Z,4.15
2023-01-31T18:12:04.927Z,4.27
2023-01-31T18:16:12.610Z,4.31
2023-01-31T18:20:14.787Z,4.35
2023-01-31T18:24:16.804Z,4.37
2023-01-31T18:28:18.829Z,4.32
2023-01-31T18:32:20.909Z,4.28
2023-01-31T18:36:22.975Z,4.26
2023-01-31T18:40:25.052Z,4.22
2023-01-31T18:44:29.174Z,4.21
2023-01-31T18:48:32.443Z,4.18
2023-01-31T18:52:35.634Z,4.17
2023-01-31T18:56:37.641Z,4.14
2023-01-31T19:00:39.668Z,4.13
2023-01-31T19:04:42.501Z,4.13
2023-01-31T19:08:48.843Z,4.14
2023-01-31T19:12:50.869Z,4.13
2023-01-31T19:16:52.890Z,4.18
2023-01-31T19:20:55.124Z,4.22
2023-01-31T19:24:58.076Z,4.23
2023-01-31T19:29:00.230Z,4.20
2023-01-31T19:33:02.253Z,4.13
2023-01-31T19:37:04.270Z,4.10
2023-01-31T19:41:15.068Z,4.16
2023-01-31T19:45:21.829Z,4.21
2023-01-31T19:49:24.882Z,4.24
2023-01-31T19:53:26.968Z,4.29
2023-01-31T19:57:28.975Z,4.30
2023-01-31T20:01:30.956Z,4.32
2023-01-31T20:05:33.533Z,4.33
2023-01-31T20:09:35.556Z,4.33
2023-01-31T20:13:37.572Z,4.36
2023-01-31T20:17:39.556Z,4.37
2023-01-31T20:21:41.533Z,4.42
2023-01-31T20:25:43.592Z,4.43
2023-01-31T20:29:45.569Z,4.41
2023-01-31T20:33:47.550Z,4.43
2023-01-31T20:37:49.523Z,4.41
2023-01-31T20:41:51.561Z,4.40
2023-01-31T20:46:01.682Z,4.36
2023-01-31T20:50:04.026Z,4.28
2023-01-31T20:54:06.507Z,4.21
2023-01-31T20:58:08.515Z,4.17
2023-01-31T21:02:11.366Z,4.12
2023-01-31T21:06:13.401Z,4.10
2023-01-31T21:10:15.551Z,4.14
2023-01-31T21:14:17.512Z,4.20
2023-01-31T21:18:20.339Z,4.75
2023-01-31T21:22:22.420Z,4.86
2023-01-31T21:26:26.699Z,4.62
2023-01-31T21:30:29.223Z,4.41
2023-01-31T21:34:31.287Z,4.25
2023-01-31T21:38:33.301Z,4.17
2023-01-31T21:42:35.391Z,4.06
2023-01-31T21:46:37.486Z,3.85
2023-01-31T21:50:39.486Z,3.67
2023-01-31T21:54:41.484Z,3.61
2023-01-31T21:58:44.357Z,3.69
2023-01-31T22:02:51.669Z,3.76
2023-01-31T22:06:55.355Z,3.83
2023-01-31T22:11:05.869Z,3.81
2023-01-31T22:15:08.551Z,3.77
2023-01-31T22:19:12.832Z,3.76
2023-01-31T22:23:14.846Z,3.68
2023-01-31T22:27:16.839Z,3.61
2023-01-31T22:31:19.354Z,3.55
2023-01-31T22:35:21.480Z,3.57
2023-01-31T22:39:23.563Z,3.61
2023-01-31T22:43:25.963Z,3.62
2023-01-31T22:47:27.998Z,3.70
2023-01-31T22:51:30.132Z,3.82
2023-01-31T22:55:32.157Z,3.83
2023-01-31T22:59:34.176Z,3.89
2023-01-31T23:03:36.227Z,3.96
2023-01-31T23:07:38.245Z,3.98
2023-01-31T23:11:40.239Z,3.93
2023-01-31T23:15:42.298Z,3.86
2023-01-31T23:19:44.352Z,3.81
2023-01-31T23:23:46.504Z,3.73
2023-01-31T23:27:48.608Z,3.63
2023-01-31T23:31:50.604Z,3.57
2023-01-31T23:35:52.694Z,3.60
2023-01-31T23:39:54.688Z,3.57
2023-01-31T23:43:56.717Z,3.50
2023-01-31T23:47:58.776Z,3.55
2023-01-31T23:52:00.816Z,3.63
2023-01-31T23:56:02.850Z,3.70
